Innisfail, Australia
Current Conditions -  °F | °C
As of 8:00 PM on Wednesday 22 Oct 2014 (Local Time) from YBCS Reporting Station
Few Clouds Few Clouds  
Wind Chill: 73°   Ceiling: Unl
Heat Index: 73°   Visibility: 6mi
Dew Point: 63°   Wind: 13mph
Humidity: 69%   Direction: 150°SSE
Pressure: 30.06"   Gusts: NA
Location:  17.52°S, 146.03°E
Report Text: YBCS 221000Z 15011KT 9999 FEW027 23/17 Q1018
Loading
Personal Weather Stations






























Interactive Weather Map
Tropical Storm Tracking
New forecast layout! Learn more

10-Day Weather Forecast

Advertisements
Track Severe Weather on mobile